Time;durP1;ratioP1;P1;durP2;ratioP2;P2;SDS_P1;SDS_P2;PMS_P1;PMS_P2;Temp;Humidity;BMP_temperature;BMP_pressure;BME280_temperature;BME280_humidity;BME280_pressure;Samples;Min_cycle;Max_cycle;Signal;HPM_P1;HPM_P2
2023/04/25 00:01:46;;;;;;;3.22;1.75;;;16.80;70.80;;;;;;5031746;28;20025;-67
2023/04/25 00:04:11;;;;;;;2.35;1.70;;;16.70;71.70;;;;;;5031708;28;20055;-67
2023/04/25 00:06:37;;;;;;;2.33;1.40;;;16.80;70.80;;;;;;5031781;28;20083;-67
2023/04/25 00:09:10;;;;;;;2.08;1.40;;;16.70;70.80;;;;;;5030634;28;20021;-67
2023/04/25 00:11:36;;;;;;;2.63;1.40;;;16.70;72.00;;;;;;5030476;28;20488;-67
2023/04/25 00:14:02;;;;;;;3.42;1.60;;;16.70;71.10;;;;;;5034012;28;20073;-67
2023/04/25 00:16:30;;;;;;;3.53;1.90;;;16.70;71.10;;;;;;5035380;28;20071;-67
2023/04/25 00:18:56;;;;;;;3.72;1.77;;;16.70;71.20;;;;;;5034132;28;20026;-67
2023/04/25 00:21:24;;;;;;;3.15;1.75;;;16.70;71.20;;;;;;5034067;28;20044;-67
2023/04/25 00:23:50;;;;;;;3.17;1.40;;;16.70;71.50;;;;;;5033915;28;20504;-67
2023/04/25 00:26:15;;;;;;;4.05;2.05;;;16.70;71.30;;;;;;5035094;28;20030;-67
2023/04/25 00:28:41;;;;;;;3.65;1.58;;;16.70;71.40;;;;;;5034834;28;20032;-67
2023/04/25 00:31:06;;;;;;;3.95;1.50;;;16.70;71.50;;;;;;5035045;28;20408;-67
2023/04/25 00:33:32;;;;;;;2.47;1.50;;;16.70;71.60;;;;;;5034896;28;20460;-67
2023/04/25 00:35:58;;;;;;;2.53;1.60;;;16.70;71.60;;;;;;5034829;28;20032;-67
2023/04/25 00:38:23;;;;;;;3.50;1.55;;;16.70;71.60;;;;;;5034954;28;20029;-67
2023/04/25 00:40:49;;;;;;;2.55;1.73;;;16.60;71.70;;;;;;5034734;28;20049;-67
2023/04/25 00:43:15;;;;;;;2.35;1.50;;;16.60;71.60;;;;;;5034565;28;20511;-67
2023/04/25 00:45:41;;;;;;;5.43;1.60;;;16.60;71.80;;;;;;5034751;28;20030;-67
2023/04/25 00:48:06;;;;;;;1.50;1.40;;;16.60;71.80;;;;;;5017092;28;20030;-67
2023/04/25 00:50:36;;;;;;;2.72;1.60;;;16.60;71.90;;;;;;5034614;28;20450;-67
2023/04/25 00:53:03;;;;;;;2.25;1.38;;;16.60;71.90;;;;;;5033435;28;20308;-67
2023/04/25 00:55:28;;;;;;;2.08;1.30;;;16.60;71.90;;;;;;5033220;28;20432;-67
2023/04/25 00:57:54;;;;;;;2.10;1.40;;;16.60;72.00;;;;;;5033015;28;20021;-67
2023/04/25 01:00:20;;;;;;;3.97;1.55;;;16.60;72.00;;;;;;5034386;28;20022;-67
2023/04/25 01:02:46;;;;;;;2.45;1.40;;;16.60;72.10;;;;;;5033224;28;20098;-67
2023/04/25 01:05:12;;;;;;;1.67;1.30;;;16.60;72.10;;;;;;5033158;28;20095;-67
2023/04/25 01:07:38;;;;;;;3.95;1.30;;;16.60;72.00;;;;;;5034171;28;20061;-67
2023/04/25 01:10:04;;;;;;;2.47;1.42;;;16.60;72.10;;;;;;5033143;28;20057;-67
2023/04/25 01:12:30;;;;;;;1.95;1.35;;;16.60;72.10;;;;;;5034099;28;20022;-67
2023/04/25 01:14:56;;;;;;;2.13;1.50;;;16.60;72.20;;;;;;5016537;28;20071;-67
2023/04/25 01:17:21;;;;;;;1.55;1.25;;;16.60;72.20;;;;;;5033046;28;20095;-67
2023/04/25 01:19:48;;;;;;;3.28;1.67;;;16.60;72.20;;;;;;5033818;28;20541;-67
2023/04/25 01:22:14;;;;;;;2.08;1.33;;;16.60;72.30;;;;;;5033044;28;20037;-67
2023/04/25 01:24:40;;;;;;;2.25;1.40;;;16.60;72.40;;;;;;5033778;28;20486;-67
2023/04/25 01:27:06;;;;;;;1.95;1.38;;;16.60;72.30;;;;;;5016335;28;20475;-67
2023/04/25 01:29:32;;;;;;;4.10;1.40;;;16.60;72.30;;;;;;5032838;28;20495;-67
2023/04/25 01:31:58;;;;;;;3.08;1.20;;;16.60;72.40;;;;;;5032501;28;20159;-67
2023/04/25 01:34:23;;;;;;;2.38;1.48;;;16.60;72.50;;;;;;5032666;28;20087;-67
2023/04/25 01:36:50;;;;;;;8.73;2.05;;;16.60;72.50;;;;;;5034116;28;20471;-67
2023/04/25 01:39:16;;;;;;;2.05;1.40;;;16.60;72.50;;;;;;5032624;28;20095;-67
2023/04/25 01:41:42;;;;;;;1.92;1.45;;;16.50;72.40;;;;;;5032471;28;20083;-67
2023/04/25 01:44:08;;;;;;;2.67;1.40;;;16.50;72.40;;;;;;5032320;28;20030;-66
2023/04/25 01:46:34;;;;;;;2.10;1.20;;;16.60;72.50;;;;;;5033527;28;20026;-66
2023/04/25 01:49:00;;;;;;;1.60;1.27;;;16.60;72.50;;;;;;5015921;28;20100;-67
2023/04/25 01:51:25;;;;;;;1.50;1.20;;;16.60;72.50;;;;;;5032340;28;20121;-67
2023/04/25 01:53:51;;;;;;;2.55;1.23;;;16.60;72.50;;;;;;5033330;28;20028;-66
2023/04/25 01:56:18;;;;;;;3.42;1.40;;;16.60;72.50;;;;;;5032120;28;20049;-67
2023/04/25 01:58:44;;;;;;;1.65;1.20;;;16.50;72.40;;;;;;5032162;28;20017;-66
2023/04/25 02:01:10;;;;;;;2.55;1.50;;;16.50;72.50;;;;;;5031949;28;20028;-66
2023/04/25 02:03:36;;;;;;;3.50;1.30;;;16.50;72.50;;;;;;5033257;28;20100;-67
2023/04/25 02:06:01;;;;;;;1.73;1.33;;;16.50;72.60;;;;;;5033082;28;20444;-67
2023/04/25 02:08:27;;;;;;;2.58;1.30;;;16.50;72.60;;;;;;5033138;28;20033;-67
2023/04/25 02:10:52;;;;;;;2.83;1.55;;;16.50;72.70;;;;;;5032840;28;20092;-67
2023/04/25 02:13:18;;;;;;;2.15;1.40;;;16.50;72.70;;;;;;5033080;28;20021;-67
2023/04/25 02:15:44;;;;;;;1.95;1.13;;;16.50;72.70;;;;;;5033071;28;20048;-67
2023/04/25 02:18:10;;;;;;;1.65;1.30;;;16.50;72.70;;;;;;5033166;28;20490;-67
2023/04/25 02:20:36;;;;;;;1.30;1.17;;;16.50;72.70;;;;;;5032959;28;20021;-67
2023/04/25 02:23:02;;;;;;;1.77;1.30;;;16.50;72.80;;;;;;5031797;28;20025;-66
2023/04/25 02:25:27;;;;;;;2.42;1.40;;;16.50;72.70;;;;;;5032598;28;20538;-67
2023/04/25 02:27:53;;;;;;;3.63;1.20;;;16.50;72.80;;;;;;5032790;28;20021;-67
2023/04/25 02:30:19;;;;;;;1.98;1.25;;;16.50;72.70;;;;;;5032909;28;20509;-67
2023/04/25 02:32:45;;;;;;;2.10;1.35;;;16.50;72.80;;;;;;5032579;28;20021;-67
2023/04/25 02:35:10;;;;;;;2.72;1.20;;;16.40;72.70;;;;;;5032272;28;20033;-66
2023/04/25 02:37:37;;;;;;;1.65;1.20;;;16.50;72.90;;;;;;5032610;28;20096;-67
2023/04/25 02:40:04;;;;;;;3.20;1.40;;;16.40;72.80;;;;;;5031214;28;20022;-67
2023/04/25 02:42:30;;;;;;;2.35;1.17;;;16.50;73.00;;;;;;5031463;28;20021;-67
2023/04/25 02:44:55;;;;;;;1.60;1.25;;;16.40;72.90;;;;;;5032537;28;20400;-67
2023/04/25 02:47:21;;;;;;;2.13;1.30;;;16.50;73.00;;;;;;5031424;28;20036;-67
2023/04/25 02:49:46;;;;;;;1.75;1.10;;;16.50;72.90;;;;;;5032513;28;20031;-67
2023/04/25 02:52:12;;;;;;;1.35;1.00;;;16.50;72.90;;;;;;5032399;28;20082;-67
2023/04/25 02:54:38;;;;;;;2.85;1.40;;;16.40;72.90;;;;;;5031338;28;20558;-67
2023/04/25 02:57:04;;;;;;;1.80;1.30;;;16.50;73.00;;;;;;5032152;28;20056;-67
2023/04/25 02:59:30;;;;;;;1.20;1.10;;;16.40;72.90;;;;;;5032409;28;20029;-67
2023/04/25 03:01:55;;;;;;;1.33;1.15;;;16.40;73.00;;;;;;5032439;28;20030;-67
2023/04/25 03:04:23;;;;;;;1.55;1.00;;;16.40;72.90;;;;;;5032541;28;20504;-67
2023/04/25 03:06:49;;;;;;;1.88;1.20;;;16.40;73.00;;;;;;5032271;28;20483;-67
2023/04/25 03:09:15;;;;;;;2.65;1.20;;;16.40;73.00;;;;;;5032109;28;20148;-67
2023/04/25 03:11:41;;;;;;;1.75;1.15;;;16.40;73.10;;;;;;5031110;28;20108;-67
2023/04/25 03:14:06;;;;;;;2.65;1.10;;;16.40;73.00;;;;;;5031131;28;20026;-67
2023/04/25 03:16:32;;;;;;;3.15;1.58;;;16.40;73.20;;;;;;5031138;28;20164;-67
2023/04/25 03:18:57;;;;;;;1.88;1.40;;;16.40;73.10;;;;;;5032143;28;20369;-66
2023/04/25 03:21:23;;;;;;;3.42;1.30;;;16.40;73.20;;;;;;5032103;28;20026;-67
2023/04/25 03:23:49;;;;;;;2.28;1.23;;;16.40;73.10;;;;;;5032102;28;20032;-66
2023/04/25 03:26:15;;;;;;;1.48;1.05;;;16.40;73.20;;;;;;5032024;28;20117;-67
2023/04/25 03:28:41;;;;;;;2.38;1.27;;;16.40;73.20;;;;;;5032162;28;20376;-67
2023/04/25 03:31:06;;;;;;;1.45;1.00;;;16.40;73.20;;;;;;5031885;28;20061;-66
2023/04/25 03:33:32;;;;;;;2.15;1.80;;;16.40;73.20;;;;;;5032235;28;20052;-67
2023/04/25 03:35:58;;;;;;;2.50;1.08;;;16.40;73.20;;;;;;5031985;28;20029;-67
2023/04/25 03:38:23;;;;;;;1.27;1.00;;;16.40;73.30;;;;;;5031940;28;20025;-67
2023/04/25 03:40:50;;;;;;;2.75;1.33;;;16.40;73.30;;;;;;5031944;28;20076;-67
2023/04/25 03:43:16;;;;;;;1.83;1.20;;;16.40;73.30;;;;;;5031800;28;20545;-67
2023/04/25 03:45:42;;;;;;;2.58;1.20;;;16.40;73.40;;;;;;5031978;28;20017;-67
2023/04/25 03:48:07;;;;;;;1.25;1.02;;;16.40;73.40;;;;;;5034880;28;20407;-67
2023/04/25 03:50:33;;;;;;;1.17;1.08;;;16.30;73.30;;;;;;5018069;28;20033;-66
2023/04/25 03:52:59;;;;;;;1.90;1.20;;;16.30;73.30;;;;;;5034523;28;20109;-67
2023/04/25 03:55:24;;;;;;;2.00;1.20;;;16.30;73.50;;;;;;5034336;28;20037;-67
2023/04/25 03:57:50;;;;;;;1.92;1.20;;;16.30;73.40;;;;;;5035621;28;20048;-67
2023/04/25 04:00:16;;;;;;;1.58;1.00;;;16.30;73.50;;;;;;5035500;28;20053;-67
2023/04/25 04:02:41;;;;;;;2.40;1.00;;;16.30;73.50;;;;;;5035470;28;20108;-67
2023/04/25 04:05:07;;;;;;;1.13;1.00;;;16.40;73.60;;;;;;5034442;28;20105;-67
2023/04/25 04:07:33;;;;;;;1.10;0.90;;;16.30;73.50;;;;;;5034050;28;20030;-67
2023/04/25 04:09:59;;;;;;;1.20;1.10;;;16.30;73.50;;;;;;5035375;28;20587;-67
2023/04/25 04:12:25;;;;;;;1.10;1.00;;;16.30;73.50;;;;;;5035372;28;20116;-67
2023/04/25 04:14:50;;;;;;;1.65;1.05;;;16.30;73.50;;;;;;5035517;28;20026;-67
2023/04/25 04:17:16;;;;;;;1.48;0.90;;;16.30;74.50;;;;;;5035181;28;20025;-67
2023/04/25 04:19:41;;;;;;;1.27;1.05;;;16.30;73.50;;;;;;5035410;28;20029;-67
2023/04/25 04:22:07;;;;;;;1.52;0.90;;;16.30;73.50;;;;;;5034863;28;20108;-67
2023/04/25 04:24:33;;;;;;;1.67;0.82;;;16.30;73.50;;;;;;5035260;28;20029;-67
2023/04/25 04:26:58;;;;;;;2.20;1.10;;;16.30;73.50;;;;;;5033828;28;20026;-67
2023/04/25 04:29:24;;;;;;;1.60;1.15;;;16.30;73.50;;;;;;5035034;28;20029;-67
2023/04/25 04:31:50;;;;;;;1.02;0.93;;;16.30;73.50;;;;;;5034950;28;20456;-67
2023/04/25 04:34:19;;;;;;;1.10;1.00;;;16.30;73.60;;;;;;5034945;28;20882;-67
2023/04/25 04:36:48;;;;;;;1.38;1.10;;;16.30;73.60;;;;;;5034549;28;20026;-67
2023/04/25 04:39:14;;;;;;;1.17;0.90;;;16.30;73.60;;;;;;5017687;28;20030;-67
2023/04/25 04:41:40;;;;;;;1.35;1.20;;;16.30;73.60;;;;;;5035104;28;20552;-67
2023/04/25 04:44:06;;;;;;;3.22;1.00;;;16.30;73.70;;;;;;5034671;28;20038;-67
2023/04/25 04:46:37;;;;;;;1.20;1.10;;;16.30;73.70;;;;;;5034591;28;20476;-67
2023/04/25 04:49:04;;;;;;;1.52;1.05;;;16.30;73.70;;;;;;5033372;28;20104;-66
2023/04/25 04:51:31;;;;;;;2.20;1.00;;;16.30;73.70;;;;;;5033414;28;20033;-66
2023/04/25 04:53:58;;;;;;;1.58;1.20;;;16.30;73.80;;;;;;5034690;28;20025;-66
2023/04/25 04:56:25;;;;;;;1.92;1.23;;;16.30;73.70;;;;;;5034283;28;20499;-67
2023/04/25 04:58:52;;;;;;;1.23;0.90;;;16.20;73.70;;;;;;5033913;28;20022;-66
2023/04/25 05:01:18;;;;;;;0.82;0.82;;;16.30;73.70;;;;;;5033132;28;20034;-67
2023/04/25 05:03:43;;;;;;;1.13;0.98;;;16.30;73.80;;;;;;5033272;28;20116;-67
2023/04/25 05:06:09;;;;;;;1.92;1.10;;;16.30;73.80;;;;;;5033136;28;20100;-66
2023/04/25 05:08:35;;;;;;;1.73;1.00;;;16.20;73.80;;;;;;5034198;28;20049;-67
2023/04/25 05:11:01;;;;;;;1.92;0.82;;;16.30;73.80;;;;;;5016673;28;20039;-67
2023/04/25 05:13:26;;;;;;;2.10;1.20;;;16.20;73.90;;;;;;5034237;28;20022;-67
2023/04/25 05:15:52;;;;;;;1.52;0.80;;;16.20;73.90;;;;;;5034152;28;20021;-67
2023/04/25 05:18:17;;;;;;;1.52;1.10;;;16.20;74.00;;;;;;5033881;28;20033;-66
2023/04/25 05:20:43;;;;;;;1.63;1.00;;;16.20;74.10;;;;;;5019755;28;20099;-67
2023/04/25 05:23:09;;;;;;;2.15;1.30;;;16.20;73.90;;;;;;5030783;28;20407;-66
2023/04/25 05:25:34;;;;;;;3.05;0.90;;;16.30;73.20;;;;;;5034333;28;20434;-67
2023/04/25 05:28:00;;;;;;;1.70;0.90;;;16.20;72.80;;;;;;5034360;28;20020;-67
2023/04/25 05:30:26;;;;;;;1.00;0.70;;;16.20;72.50;;;;;;5034402;28;20021;-67
2023/04/25 05:32:51;;;;;;;1.00;0.90;;;16.20;72.40;;;;;;5033874;28;20030;-67
2023/04/25 05:35:17;;;;;;;2.35;0.80;;;16.20;72.20;;;;;;5033967;28;20032;-67
2023/04/25 05:37:43;;;;;;;3.85;1.10;;;16.20;72.10;;;;;;5034324;28;20029;-66
2023/04/25 05:40:09;;;;;;;1.60;0.77;;;16.20;72.00;;;;;;5033979;28;20025;-68
2023/04/25 05:42:35;;;;;;;1.25;0.70;;;16.20;72.00;;;;;;5034129;28;20037;-68
2023/04/25 05:45:00;;;;;;;1.30;0.88;;;16.20;71.90;;;;;;5032709;28;20499;-68
2023/04/25 05:47:26;;;;;;;1.55;0.80;;;16.20;71.90;;;;;;5033780;28;20495;-68
2023/04/25 05:49:52;;;;;;;1.38;0.80;;;16.20;71.80;;;;;;5032752;28;20038;-68
2023/04/25 05:52:18;;;;;;;0.80;0.70;;;16.20;71.80;;;;;;5033833;28;20074;-68
2023/04/25 05:54:44;;;;;;;0.75;0.75;;;16.20;71.90;;;;;;5029380;28;20041;-67
2023/04/25 05:57:27;;;;;;;1.20;0.75;;;16.20;71.70;;;;;;5029466;28;20044;-67
2023/04/25 05:59:52;;;;;;;;;;;16.20;71.60;;;;;;5032938;28;20091;-67
2023/04/25 06:02:21;;;;;;;0.85;0.85;;;16.20;71.70;;;;;;5025105;28;19909;-67
2023/04/25 06:04:49;;;;;;;1.30;1.00;;;16.20;71.70;;;;;;5027484;28;20036;-68
2023/04/25 06:07:14;;;;;;;2.30;0.90;;;16.20;71.70;;;;;;5026211;28;20022;-67
2023/04/25 06:09:40;;;;;;;1.75;0.90;;;16.20;71.70;;;;;;5026196;28;20044;-67
2023/04/25 06:12:06;;;;;;;1.13;0.80;;;16.20;71.90;;;;;;5027164;28;20396;-67
2023/04/25 06:14:33;;;;;;;3.70;1.10;;;16.20;71.90;;;;;;5033518;28;20018;-67
2023/04/25 06:16:58;;;;;;;1.83;0.90;;;16.20;72.00;;;;;;5031856;28;20025;-67
2023/04/25 06:19:24;;;;;;;1.85;0.98;;;16.20;72.10;;;;;;5033152;28;20538;-67
2023/04/25 06:21:50;;;;;;;4.30;1.38;;;16.20;72.20;;;;;;5033406;28;20113;-68
2023/04/25 06:24:15;;;;;;;6.80;1.45;;;16.20;72.20;;;;;;5032766;28;20033;-68
2023/04/25 06:26:41;;;;;;;7.22;1.85;;;16.20;72.40;;;;;;5030465;28;20075;-67
2023/04/25 06:29:07;;;;;;;8.73;1.67;;;16.20;72.90;;;;;;5013270;28;20033;-68
2023/04/25 06:31:33;;;;;;;7.18;1.63;;;16.20;73.00;;;;;;5031200;28;20104;-68
2023/04/25 06:33:59;;;;;;;6.88;1.73;;;16.20;73.00;;;;;;5031143;28;20030;-67
2023/04/25 06:36:25;;;;;;;2.83;1.38;;;16.20;73.00;;;;;;5030901;28;20079;-67
2023/04/25 06:38:52;;;;;;;9.32;1.65;;;16.20;73.00;;;;;;5031632;28;20026;-67
2023/04/25 06:41:18;;;;;;;6.97;2.05;;;16.20;73.00;;;;;;5031336;28;20029;-68
2023/04/25 06:43:44;;;;;;;4.32;1.83;;;16.20;73.10;;;;;;5014143;28;20037;-67
2023/04/25 06:46:10;;;;;;;4.20;1.73;;;16.20;73.00;;;;;;5031101;28;20018;-67
2023/04/25 06:48:35;;;;;;;6.97;1.92;;;16.20;73.00;;;;;;5031221;28;20104;-67
2023/04/25 06:51:01;;;;;;;6.53;1.83;;;16.20;73.00;;;;;;5032401;28;20033;-68
2023/04/25 06:53:27;;;;;;;6.05;1.60;;;16.20;73.00;;;;;;5031559;28;20026;-67
2023/04/25 06:55:52;;;;;;;5.53;1.65;;;16.20;73.00;;;;;;5032342;28;20037;-67
2023/04/25 06:58:18;;;;;;;5.40;1.63;;;16.20;73.00;;;;;;5032391;28;20021;-67
2023/04/25 07:00:44;;;;;;;6.15;1.73;;;16.20;73.00;;;;;;5032039;28;20026;-67
2023/04/25 07:03:09;;;;;;;3.20;1.50;;;16.20;73.00;;;;;;5031199;28;20029;-67
2023/04/25 07:05:35;;;;;;;4.03;1.70;;;16.20;73.00;;;;;;5032348;28;20049;-67
2023/04/25 07:08:01;;;;;;;5.68;1.52;;;16.20;72.90;;;;;;5031082;28;20410;-67
2023/04/25 07:10:26;;;;;;;3.60;1.40;;;16.20;72.90;;;;;;5032154;28;20021;-67
2023/04/25 07:12:52;;;;;;;4.60;1.63;;;16.20;73.00;;;;;;5031133;28;20107;-68
2023/04/25 07:15:18;;;;;;;4.38;1.33;;;16.20;72.90;;;;;;5031955;28;20018;-68
2023/04/25 07:17:43;;;;;;;7.45;1.98;;;16.20;72.90;;;;;;5031194;28;20538;-68
2023/04/25 07:20:09;;;;;;;3.97;1.73;;;16.20;72.90;;;;;;5032133;28;20080;-68
2023/04/25 07:22:35;;;;;;;9.93;1.83;;;16.20;72.90;;;;;;5032932;28;20033;-68
2023/04/25 07:25:01;;;;;;;2.83;1.55;;;16.20;72.90;;;;;;5018854;28;20021;-67
2023/04/25 07:27:26;;;;;;;3.17;1.45;;;16.20;72.80;;;;;;5034936;28;20104;-67
2023/04/25 07:29:52;;;;;;;4.63;1.63;;;16.20;72.80;;;;;;5034841;28;20396;-67
2023/04/25 07:32:18;;;;;;;6.43;1.70;;;16.20;72.80;;;;;;5034897;28;20480;-68
2023/04/25 07:34:44;;;;;;;4.18;1.17;;;16.20;72.80;;;;;;5036021;28;20030;-67
2023/04/25 07:37:10;;;;;;;3.47;1.33;;;16.20;72.80;;;;;;5036051;28;20472;-68
2023/04/25 07:39:36;;;;;;;2.83;1.38;;;16.20;72.80;;;;;;5034747;28;20025;-67
2023/04/25 07:42:03;;;;;;;4.05;1.52;;;16.20;72.80;;;;;;5035992;28;20510;-68
2023/04/25 07:44:30;;;;;;;4.00;1.40;;;16.20;72.70;;;;;;5035464;28;20104;-67
2023/04/25 07:46:56;;;;;;;3.22;1.20;;;16.20;72.80;;;;;;5034909;28;20026;-68
2023/04/25 07:49:21;;;;;;;5.18;1.58;;;16.20;72.70;;;;;;5035691;28;20488;-68
2023/04/25 07:51:47;;;;;;;3.30;1.40;;;16.20;72.70;;;;;;5035719;28;20031;-67
2023/04/25 07:54:13;;;;;;;4.10;1.40;;;16.20;72.70;;;;;;5034699;28;20029;-67
2023/04/25 07:56:39;;;;;;;1.83;1.20;;;16.20;72.70;;;;;;5035261;28;20050;-67
2023/04/25 07:59:05;;;;;;;4.85;1.52;;;16.20;72.70;;;;;;5035491;28;20021;-68
2023/04/25 08:01:30;;;;;;;3.22;1.33;;;16.20;72.70;;;;;;5035753;28;20104;-67
2023/04/25 08:03:56;;;;;;;3.90;1.48;;;16.20;72.70;;;;;;5035502;28;20018;-67
2023/04/25 08:06:22;;;;;;;4.35;1.30;;;16.20;72.70;;;;;;5035557;28;20034;-67
2023/04/25 08:08:47;;;;;;;3.88;1.48;;;16.20;72.70;;;;;;5035233;28;20033;-68
2023/04/25 08:11:13;;;;;;;4.40;1.58;;;16.20;72.70;;;;;;5035304;28;20025;-68
2023/04/25 08:13:38;;;;;;;3.85;1.40;;;16.20;72.60;;;;;;5035184;28;20068;-68
2023/04/25 08:16:04;;;;;;;2.55;1.30;;;16.20;72.60;;;;;;5035279;28;20080;-68
2023/04/25 08:18:30;;;;;;;3.53;1.33;;;16.20;72.60;;;;;;5034917;28;20041;-67
2023/04/25 08:20:56;;;;;;;2.60;1.33;;;16.20;72.60;;;;;;5035447;28;20103;-67
2023/04/25 08:23:22;;;;;;;3.63;1.17;;;16.20;72.60;;;;;;5035084;28;20443;-67
2023/04/25 08:25:47;;;;;;;3.70;1.20;;;16.20;72.60;;;;;;5033971;28;20025;-67
2023/04/25 08:28:13;;;;;;;1.27;0.82;;;16.20;72.60;;;;;;5035080;28;20105;-68
2023/04/25 08:30:40;;;;;;;1.88;1.00;;;16.20;72.60;;;;;;5035100;28;20061;-67
2023/04/25 08:33:05;;;;;;;5.25;1.27;;;16.20;72.50;;;;;;5034522;28;20032;-67
2023/04/25 08:35:32;;;;;;;4.32;1.30;;;16.20;72.60;;;;;;5034368;28;20396;-67
2023/04/25 08:37:58;;;;;;;2.75;1.40;;;16.20;72.50;;;;;;5034797;28;20022;-68
2023/04/25 08:40:28;;;;;;;3.45;1.48;;;16.20;72.50;;;;;;5034877;28;20032;-67
2023/04/25 08:42:54;;;;;;;2.25;1.10;;;16.20;72.60;;;;;;5017704;28;20021;-67
2023/04/25 08:45:20;;;;;;;2.28;0.90;;;16.20;72.50;;;;;;5017127;28;20033;-67
2023/04/25 08:47:46;;;;;;;1.73;1.08;;;16.10;72.40;;;;;;5034851;28;20479;-68
2023/04/25 08:50:11;;;;;;;3.00;1.00;;;16.10;72.40;;;;;;5033426;28;20037;-67
2023/04/25 08:52:40;;;;;;;1.65;1.10;;;16.20;72.50;;;;;;5034420;28;20017;-67
2023/04/25 08:55:06;;;;;;;2.08;1.00;;;16.20;72.50;;;;;;5017199;28;20064;-67
2023/04/25 08:57:31;;;;;;;2.00;1.30;;;16.20;72.40;;;;;;5016653;28;20055;-67
2023/04/25 08:59:57;;;;;;;1.92;1.08;;;16.20;72.40;;;;;;5034344;28;20036;-67
2023/04/25 09:02:23;;;;;;;4.35;1.10;;;16.20;72.40;;;;;;5034494;28;20024;-68
2023/04/25 09:04:49;;;;;;;3.42;1.00;;;16.20;72.40;;;;;;5033123;28;20036;-68
2023/04/25 09:07:18;;;;;;;1.67;1.00;;;16.20;72.40;;;;;;5033341;28;20025;-68
2023/04/25 09:09:44;;;;;;;1.95;1.05;;;16.20;72.40;;;;;;5034123;28;20032;-68
2023/04/25 09:12:09;;;;;;;2.75;1.15;;;16.20;72.30;;;;;;5034201;28;20392;-68
2023/04/25 09:14:35;;;;;;;2.78;1.17;;;16.20;72.30;;;;;;5032985;28;20030;-68
2023/04/25 09:17:05;;;;;;;1.38;0.80;;;16.20;72.40;;;;;;5034372;28;20543;-68
2023/04/25 09:19:39;;;;;;;2.22;1.17;;;16.20;72.30;;;;;;5032796;28;20021;-67
2023/04/25 09:22:05;;;;;;;2.45;1.10;;;16.20;72.30;;;;;;5033964;28;20024;-68
2023/04/25 09:24:43;;;;;;;2.53;1.05;;;16.20;72.30;;;;;;5032585;28;20100;-67
2023/04/25 09:27:10;;;;;;;1.25;0.90;;;16.20;72.30;;;;;;5016786;28;20022;-67
2023/04/25 09:29:40;;;;;;;2.30;1.15;;;16.20;72.30;;;;;;5016258;28;20033;-67
2023/04/25 09:32:26;;;;;;;2.17;1.00;;;16.20;72.30;;;;;;5033807;28;20395;-67
2023/04/25 09:34:56;;;;;;;2.67;1.08;;;16.20;72.30;;;;;;5032452;28;20025;-68
2023/04/25 09:37:29;;;;;;;2.03;1.17;;;16.20;72.30;;;;;;5032525;28;20025;-67
2023/04/25 09:39:55;;;;;;;0.88;0.70;;;16.20;72.30;;;;;;5032323;28;20049;-67
2023/04/25 09:42:25;;;;;;;2.63;1.33;;;16.20;72.30;;;;;;5033581;28;20025;-68
2023/04/25 09:44:52;;;;;;;1.83;1.10;;;16.20;72.30;;;;;;5032260;28;20033;-67
2023/04/25 09:47:17;;;;;;;2.03;1.10;;;16.20;72.30;;;;;;5016081;28;20109;-67
2023/04/25 09:49:43;;;;;;;1.45;0.90;;;16.20;72.30;;;;;;5033582;28;20104;-67
2023/04/25 09:52:13;;;;;;;0.88;0.85;;;16.20;72.30;;;;;;5033276;28;20029;-68
2023/04/25 09:54:38;;;;;;;1.60;0.73;;;16.20;72.20;;;;;;5032018;28;20022;-67
2023/04/25 09:57:23;;;;;;;1.42;0.85;;;16.10;72.20;;;;;;5033337;28;20144;-67
2023/04/25 09:59:50;;;;;;;1.42;0.93;;;16.20;72.20;;;;;;5031842;28;20506;-68
2023/04/25 10:02:21;;;;;;;1.00;0.70;;;16.20;72.30;;;;;;5032193;28;20112;-68
2023/04/25 10:04:54;;;;;;;1.35;0.82;;;16.20;72.30;;;;;;5033073;28;20037;-68
2023/04/25 10:07:25;;;;;;;1.33;0.80;;;16.20;72.20;;;;;;5032111;28;20033;-68
2023/04/25 10:09:52;;;;;;;1.60;0.73;;;16.20;72.30;;;;;;5031678;28;20037;-68
2023/04/25 10:12:18;;;;;;;1.77;0.90;;;16.20;72.30;;;;;;5015670;28;20021;-68
2023/04/25 10:14:44;;;;;;;1.45;0.90;;;16.20;72.30;;;;;;5031726;28;20440;-67
2023/04/25 10:17:10;;;;;;;2.00;1.00;;;16.20;72.20;;;;;;5032124;28;20013;-67
2023/04/25 10:19:36;;;;;;;1.05;0.80;;;16.20;72.20;;;;;;5033050;28;20082;-67
2023/04/25 10:22:08;;;;;;;1.67;1.02;;;16.10;72.10;;;;;;5031913;28;20061;-68
2023/04/25 10:24:35;;;;;;;1.63;0.90;;;16.20;72.20;;;;;;5032539;28;20030;-67
2023/04/25 10:27:01;;;;;;;2.10;0.63;;;16.20;72.20;;;;;;5031825;28;20025;-67
2023/04/25 10:29:27;;;;;;;1.05;0.90;;;16.20;72.20;;;;;;5015336;28;20511;-68
2023/04/25 10:31:53;;;;;;;0.82;0.70;;;16.20;72.20;;;;;;5014891;28;20036;-67
2023/04/25 10:34:19;;;;;;;1.85;0.80;;;16.20;72.20;;;;;;5031652;28;20570;-67
2023/04/25 10:36:50;;;;;;;1.27;0.70;;;16.20;72.20;;;;;;5032514;28;20151;-68
2023/04/25 10:39:22;;;;;;;1.30;0.65;;;16.20;72.20;;;;;;5031476;28;20098;-68
2023/04/25 10:41:52;;;;;;;1.90;0.85;;;16.20;72.20;;;;;;5015028;28;20116;-68
2023/04/25 10:44:18;;;;;;;0.75;0.75;;;16.20;72.20;;;;;;5015725;28;20048;-68
2023/04/25 10:46:45;;;;;;;0.93;0.60;;;16.20;72.20;;;;;;5031227;28;20491;-67
2023/04/25 10:49:15;;;;;;;1.88;0.82;;;16.20;72.20;;;;;;5032602;28;20051;-68
2023/04/25 10:51:41;;;;;;;0.68;0.68;;;16.20;72.20;;;;;;5014908;28;20026;-67
2023/04/25 10:54:07;;;;;;;1.77;0.85;;;16.20;72.20;;;;;;5032552;28;20033;-68
2023/04/25 10:56:37;;;;;;;1.02;0.75;;;16.10;72.20;;;;;;5031645;28;20050;-67
2023/04/25 10:59:14;;;;;;;1.73;0.90;;;16.20;72.20;;;;;;5032307;28;20479;-67
2023/04/25 11:01:41;;;;;;;0.75;0.60;;;16.20;72.20;;;;;;5031087;28;20025;-67
2023/04/25 11:04:20;;;;;;;1.35;0.60;;;16.20;72.20;;;;;;5032312;28;20052;-67
2023/04/25 11:06:55;;;;;;;1.02;0.70;;;16.20;72.20;;;;;;5030861;28;20021;-68
2023/04/25 11:09:23;;;;;;;1.80;0.80;;;16.20;72.20;;;;;;5011470;28;20037;-67
2023/04/25 11:11:55;;;;;;;1.10;0.85;;;16.20;72.20;;;;;;5011319;28;20022;-67
2023/04/25 11:14:21;;;;;;;0.85;0.60;;;16.20;72.20;;;;;;5012700;28;20077;-68
2023/04/25 11:16:47;;;;;;;0.75;0.60;;;16.20;72.30;;;;;;5012374;28;20029;-67
2023/04/25 11:19:13;;;;;;;0.80;0.50;;;16.20;72.20;;;;;;5011457;28;20084;-67
2023/04/25 11:21:38;;;;;;;1.15;0.75;;;16.20;72.20;;;;;;5012266;28;20092;-67
2023/04/25 11:24:04;;;;;;;1.55;0.77;;;16.20;72.20;;;;;;5012543;28;20563;-67
2023/04/25 11:26:30;;;;;;;1.42;0.90;;;16.20;72.20;;;;;;5011203;28;20014;-67
2023/04/25 11:29:00;;;;;;;1.63;0.80;;;16.20;72.20;;;;;;5012464;28;20033;-67
2023/04/25 11:31:26;;;;;;;0.90;0.73;;;16.20;72.20;;;;;;5012345;28;20037;-68
2023/04/25 11:33:54;;;;;;;0.80;0.63;;;16.20;72.20;;;;;;5011039;28;20026;-67
2023/04/25 11:36:19;;;;;;;1.77;0.75;;;16.20;72.20;;;;;;5012166;28;20026;-68
2023/04/25 11:38:45;;;;;;;0.93;0.70;;;16.20;72.20;;;;;;5012168;28;20396;-67
2023/04/25 11:41:11;;;;;;;0.40;0.40;;;16.20;72.20;;;;;;5011117;28;20018;-68
2023/04/25 11:43:37;;;;;;;1.52;0.73;;;16.20;73.20;;;;;;5011132;28;20523;-68
2023/04/25 11:46:07;;;;;;;1.20;0.47;;;16.20;72.20;;;;;;5011045;28;20022;-67
2023/04/25 11:48:39;;;;;;;5.53;0.63;;;16.20;72.20;;;;;;5011070;28;20022;-68
2023/04/25 11:51:05;;;;;;;1.90;0.70;;;16.20;72.20;;;;;;5011885;28;20018;-67
2023/04/25 11:53:31;;;;;;;1.30;0.60;;;16.20;72.10;;;;;;5012057;28;20082;-67
2023/04/25 11:55:57;;;;;;;0.70;0.50;;;16.20;72.10;;;;;;5011767;28;20485;-67
2023/04/25 11:58:22;;;;;;;1.30;0.70;;;16.20;72.10;;;;;;5012264;28;20030;-68
2023/04/25 12:00:48;;;;;;;2.05;0.95;;;16.20;72.20;;;;;;5026713;28;20026;-67
2023/04/25 12:03:14;;;;;;;1.23;0.60;;;16.20;72.20;;;;;;5031947;28;20532;-67
2023/04/25 12:05:39;;;;;;;1.00;0.60;;;16.20;72.20;;;;;;5031577;28;20454;-68
2023/04/25 12:08:15;;;;;;;1.00;0.50;;;16.20;72.20;;;;;;5031477;28;20490;-68
2023/04/25 12:10:44;;;;;;;0.80;0.60;;;16.30;72.30;;;;;;5017712;28;20023;-67
2023/04/25 12:13:24;;;;;;;0.60;0.60;;;16.20;72.10;;;;;;5034078;28;20029;-67
2023/04/25 12:15:50;;;;;;;0.73;0.60;;;16.20;72.20;;;;;;5034199;28;20126;-67
2023/04/25 12:18:19;;;;;;;0.90;0.65;;;16.20;72.20;;;;;;5017914;28;20100;-67
2023/04/25 12:20:45;;;;;;;0.77;0.77;;;16.20;72.20;;;;;;5034785;28;20013;-67
2023/04/25 12:23:11;;;;;;;0.60;0.60;;;16.20;72.20;;;;;;5035125;28;20029;-68
2023/04/25 12:25:44;;;;;;;1.02;0.50;;;16.20;72.20;;;;;;5035266;28;20109;-67
2023/04/25 12:28:20;;;;;;;1.45;0.80;;;16.20;72.20;;;;;;5033977;28;20036;-67
2023/04/25 12:31:01;;;;;;;0.68;0.52;;;16.20;72.20;;;;;;5033810;28;20421;-67
2023/04/25 12:33:34;;;;;;;1.10;0.50;;;16.20;72.20;;;;;;5034709;28;20032;-68
2023/04/25 12:36:00;;;;;;;1.05;0.70;;;16.20;72.20;;;;;;5017418;28;20108;-68
2023/04/25 12:38:30;;;;;;;0.73;0.50;;;16.20;72.20;;;;;;5017473;28;20044;-67
2023/04/25 12:40:59;;;;;;;1.23;0.52;;;16.20;72.20;;;;;;5033782;28;20017;-68
2023/04/25 12:43:24;;;;;;;0.82;0.63;;;16.20;72.20;;;;;;5033779;28;20053;-68
2023/04/25 12:45:51;;;;;;;0.65;0.50;;;16.20;72.20;;;;;;5017185;28;20459;-68